createdAt,value
2023-01-21T00:01:20.937Z,86.29
2023-01-21T00:03:48.933Z,86.10
2023-01-21T00:06:17.316Z,86.19
2023-01-21T00:08:45.628Z,86.22
2023-01-21T00:11:15.966Z,86.25
2023-01-21T00:13:44.949Z,86.07
2023-01-21T00:16:13.806Z,85.97
2023-01-21T00:18:42.242Z,85.87
2023-01-21T00:21:10.693Z,85.93
2023-01-21T00:23:39.432Z,85.79
2023-01-21T00:26:10.481Z,85.90
2023-01-21T00:28:40.393Z,85.86
2023-01-21T00:31:09.247Z,85.80
2023-01-21T00:33:38.530Z,85.48
2023-01-21T00:36:12.590Z,85.29
2023-01-21T00:38:40.694Z,85.38
2023-01-21T00:41:12.499Z,85.37
2023-01-21T00:43:42.400Z,85.26
2023-01-21T00:46:12.032Z,85.10
2023-01-21T00:48:40.683Z,85.09
2023-01-21T00:51:09.979Z,85.03
2023-01-21T00:53:42.049Z,85.00
2023-01-21T00:56:12.959Z,85.04
2023-01-21T00:58:43.891Z,85.18
2023-01-21T01:01:15.839Z,85.21
2023-01-21T01:03:45.621Z,85.09
2023-01-21T01:06:18.910Z,84.96
2023-01-21T01:08:49.910Z,84.90
2023-01-21T01:11:19.246Z,84.80
2023-01-21T01:13:47.763Z,84.75
2023-01-21T01:16:16.809Z,84.82
2023-01-21T01:18:45.657Z,84.87
2023-01-21T01:21:17.107Z,84.80
2023-01-21T01:23:46.352Z,84.71
2023-01-21T01:26:18.264Z,84.72
2023-01-21T01:28:46.289Z,84.58
2023-01-21T01:31:17.634Z,84.68
2023-01-21T01:33:46.498Z,84.71
2023-01-21T01:36:17.381Z,84.55
2023-01-21T01:38:46.342Z,84.45
2023-01-21T01:41:27.674Z,84.34
2023-01-21T01:44:05.392Z,84.22
2023-01-21T01:46:37.421Z,84.26
2023-01-21T01:49:19.468Z,84.18
2023-01-21T01:51:56.521Z,84.04
2023-01-21T01:54:35.674Z,84.04
2023-01-21T01:57:08.328Z,84.26
2023-01-21T01:59:37.472Z,84.27
2023-01-21T02:02:10.087Z,84.49
2023-01-21T02:04:48.342Z,84.51
2023-01-21T02:07:19.205Z,84.61
2023-01-21T02:09:47.803Z,84.45
2023-01-21T02:12:18.349Z,84.39
2023-01-21T02:14:47.235Z,84.45
2023-01-21T02:17:30.663Z,84.51
2023-01-21T02:20:23.350Z,84.52
2023-01-21T02:23:08.843Z,84.41
2023-01-21T02:26:01.563Z,84.34
2023-01-21T02:29:00.527Z,84.49
2023-01-21T02:31:47.129Z,84.45
2023-01-21T02:34:24.511Z,84.48
2023-01-21T02:37:14.329Z,84.49
2023-01-21T02:39:48.558Z,84.58
2023-01-21T02:42:29.069Z,84.84
2023-01-21T02:45:11.494Z,84.98
2023-01-21T02:48:16.684Z,85.14
2023-01-21T02:50:53.651Z,85.40
2023-01-21T02:53:28.245Z,85.53
2023-01-21T02:56:01.764Z,85.50
2023-01-21T02:58:33.915Z,85.59
2023-01-21T03:01:11.137Z,85.64
2023-01-21T03:03:56.128Z,85.70
2023-01-21T03:06:36.099Z,85.73
2023-01-21T03:09:31.635Z,86.01
2023-01-21T03:12:05.998Z,86.11
2023-01-21T03:15:37.716Z,86.19
2023-01-21T03:18:13.159Z,86.16
2023-01-21T03:20:46.709Z,86.25
2023-01-21T03:23:27.105Z,86.16
2023-01-21T03:25:57.628Z,86.17
2023-01-21T03:28:32.660Z,86.01
2023-01-21T03:31:06.561Z,85.90
2023-01-21T03:33:39.561Z,85.86
2023-01-21T03:36:16.880Z,85.87
2023-01-21T03:38:50.096Z,85.88
2023-01-21T03:41:25.042Z,85.77
2023-01-21T03:43:53.648Z,85.86
2023-01-21T03:46:31.338Z,85.90
2023-01-21T03:50:07.050Z,85.69
2023-01-21T03:52:40.032Z,85.52
2023-01-21T03:55:08.544Z,85.47
2023-01-21T03:57:37.077Z,85.60
2023-01-21T04:00:07.131Z,85.58
2023-01-21T04:02:35.336Z,85.68
2023-01-21T04:05:04.945Z,85.86
2023-01-21T04:07:32.923Z,85.62
2023-01-21T04:10:01.406Z,85.28
2023-01-21T04:12:29.444Z,84.95
2023-01-21T04:14:58.268Z,84.60
2023-01-21T04:17:28.611Z,84.64
2023-01-21T04:19:56.549Z,84.63
2023-01-21T04:22:25.070Z,84.69
2023-01-21T04:24:53.013Z,84.84
2023-01-21T04:27:21.702Z,84.86
2023-01-21T04:29:49.880Z,84.77
2023-01-21T04:32:18.113Z,84.78
2023-01-21T04:34:46.326Z,84.82
2023-01-21T04:37:14.542Z,84.75
2023-01-21T04:39:42.718Z,84.73
2023-01-21T04:42:10.884Z,84.64
2023-01-21T04:44:39.247Z,84.71
2023-01-21T04:47:07.742Z,84.56
2023-01-21T04:49:36.049Z,84.47
2023-01-21T04:52:04.847Z,84.41
2023-01-21T04:54:32.905Z,84.38
2023-01-21T04:57:01.207Z,84.36
2023-01-21T04:59:29.751Z,84.39
2023-01-21T05:01:58.287Z,84.31
2023-01-21T05:04:26.246Z,84.35
2023-01-21T05:06:54.629Z,84.27
2023-01-21T05:09:22.607Z,84.34
2023-01-21T05:11:51.001Z,84.25
2023-01-21T05:14:19.551Z,84.09
2023-01-21T05:16:48.056Z,84.07
2023-01-21T05:19:16.603Z,84.15
2023-01-21T05:21:45.098Z,84.11
2023-01-21T05:24:13.043Z,84.02
2023-01-21T05:26:41.155Z,83.88
2023-01-21T05:29:10.426Z,83.84
2023-01-21T05:31:38.804Z,83.81
2023-01-21T05:34:07.017Z,83.73
2023-01-21T05:36:35.508Z,83.76
2023-01-21T05:39:04.420Z,83.72
2023-01-21T05:41:32.591Z,83.64
2023-01-21T05:44:00.673Z,83.58
2023-01-21T05:46:28.861Z,83.45
2023-01-21T05:48:57.183Z,83.19
2023-01-21T05:51:25.463Z,83.08
2023-01-21T05:53:53.429Z,83.11
2023-01-21T05:56:21.702Z,83.10
2023-01-21T05:58:49.647Z,83.07
2023-01-21T06:01:18.118Z,83.04
2023-01-21T06:03:46.484Z,83.01
2023-01-21T06:06:14.652Z,83.10
2023-01-21T06:08:42.547Z,82.90
2023-01-21T06:11:10.776Z,82.70
2023-01-21T06:13:39.048Z,82.70
2023-01-21T06:16:07.927Z,82.58
2023-01-21T06:18:36.406Z,82.64
2023-01-21T06:21:04.546Z,82.59
2023-01-21T06:23:32.724Z,82.38
2023-01-21T06:26:01.755Z,82.40
2023-01-21T06:28:30.613Z,82.35
2023-01-21T06:30:59.093Z,82.35
2023-01-21T06:33:27.364Z,82.35
2023-01-21T06:35:55.372Z,82.30
2023-01-21T06:38:23.719Z,82.18
2023-01-21T06:40:52.013Z,82.15
2023-01-21T06:43:20.099Z,82.22
2023-01-21T06:45:48.360Z,82.17
2023-01-21T06:48:17.447Z,81.97
2023-01-21T06:50:48.167Z,81.75
2023-01-21T06:53:16.140Z,81.39
2023-01-21T06:55:44.873Z,81.20
2023-01-21T06:58:14.953Z,81.13
2023-01-21T07:00:43.319Z,81.30
2023-01-21T07:03:11.713Z,81.27
2023-01-21T07:05:40.115Z,81.08
2023-01-21T07:08:09.168Z,80.97
2023-01-21T07:10:37.321Z,81.06
2023-01-21T07:13:05.876Z,80.91
2023-01-21T07:15:34.821Z,80.96
2023-01-21T07:18:03.020Z,80.72
2023-01-21T07:20:31.491Z,80.46
2023-01-21T07:22:59.936Z,80.22
2023-01-21T07:25:28.179Z,79.89
2023-01-21T07:27:56.765Z,79.86
2023-01-21T07:30:25.402Z,80.46
2023-01-21T07:32:53.941Z,80.44
2023-01-21T07:35:22.887Z,79.94
2023-01-21T07:37:51.211Z,80.01
2023-01-21T07:40:19.220Z,79.99
2023-01-21T07:42:52.407Z,79.62
2023-01-21T07:45:22.275Z,79.39
2023-01-21T07:47:50.891Z,79.09
2023-01-21T07:50:19.666Z,79.02
2023-01-21T07:52:48.048Z,78.80
2023-01-21T07:55:16.663Z,78.40
2023-01-21T07:57:44.909Z,78.44
2023-01-21T08:00:14.248Z,78.67
2023-01-21T08:02:42.743Z,78.79
2023-01-21T08:05:11.652Z,78.71
2023-01-21T08:07:39.968Z,78.64
2023-01-21T08:10:09.048Z,78.59
2023-01-21T08:12:37.591Z,78.45
2023-01-21T08:15:07.131Z,78.17
2023-01-21T08:17:39.447Z,77.51
2023-01-21T08:20:11.582Z,76.68
2023-01-21T08:22:40.472Z,76.49
2023-01-21T08:25:09.178Z,76.64
2023-01-21T08:27:37.325Z,76.63
2023-01-21T08:30:06.433Z,76.61
2023-01-21T08:32:35.063Z,76.37
2023-01-21T08:35:03.287Z,75.96
2023-01-21T08:37:31.613Z,75.81
2023-01-21T08:39:59.909Z,75.86
2023-01-21T08:42:28.270Z,75.65
2023-01-21T08:44:56.576Z,75.09
2023-01-21T08:47:25.820Z,74.21
2023-01-21T08:49:53.947Z,74.13
2023-01-21T08:52:22.791Z,73.99
2023-01-21T08:54:51.239Z,74.33
2023-01-21T08:57:19.214Z,74.48
2023-01-21T08:59:47.442Z,74.52
2023-01-21T09:02:15.779Z,74.28
2023-01-21T09:04:43.904Z,74.45
2023-01-21T09:07:12.085Z,74.28
2023-01-21T09:09:40.037Z,73.96
2023-01-21T09:12:08.470Z,73.11
2023-01-21T09:14:36.841Z,73.85
2023-01-21T09:17:05.442Z,73.81
2023-01-21T09:19:33.671Z,73.78
2023-01-21T09:22:01.793Z,73.48
2023-01-21T09:24:30.164Z,73.27
2023-01-21T09:26:58.452Z,73.30
2023-01-21T09:29:26.984Z,72.93
2023-01-21T09:31:55.289Z,73.13
2023-01-21T09:34:23.558Z,73.11
2023-01-21T09:36:52.259Z,72.87
2023-01-21T09:39:20.558Z,72.76
2023-01-21T09:41:54.706Z,72.91
2023-01-21T09:44:27.766Z,72.52
2023-01-21T09:47:02.720Z,72.09
2023-01-21T09:49:42.496Z,71.71
2023-01-21T09:52:10.857Z,71.64
2023-01-21T09:54:39.890Z,71.75
2023-01-21T09:57:51.379Z,72.36
2023-01-21T10:00:31.768Z,72.76
2023-01-21T10:03:04.808Z,72.90
2023-01-21T10:05:39.723Z,73.21
2023-01-21T10:08:36.683Z,73.67
2023-01-21T10:11:07.592Z,73.38
2023-01-21T10:13:44.436Z,73.57
2023-01-21T10:16:37.519Z,73.85
2023-01-21T10:19:08.183Z,74.04
2023-01-21T10:21:46.094Z,74.17
2023-01-21T10:24:38.972Z,74.01
2023-01-21T10:27:14.774Z,73.91
2023-01-21T10:29:45.065Z,73.84
2023-01-21T10:32:22.591Z,73.80
2023-01-21T10:34:54.963Z,73.10
2023-01-21T10:37:38.274Z,72.94
2023-01-21T10:40:17.415Z,73.21
2023-01-21T10:42:59.978Z,73.00
2023-01-21T10:45:42.167Z,72.66
2023-01-21T10:48:20.034Z,72.31
2023-01-21T10:50:59.241Z,72.65
2023-01-21T10:53:44.965Z,72.91
2023-01-21T10:56:23.799Z,73.03
2023-01-21T10:59:00.262Z,73.39
2023-01-21T11:01:32.449Z,74.83
2023-01-21T11:04:26.189Z,75.12
2023-01-21T11:07:04.250Z,73.38
2023-01-21T11:09:38.062Z,73.44
2023-01-21T11:12:11.039Z,73.31
2023-01-21T11:14:39.794Z,73.13
2023-01-21T11:17:08.133Z,72.69
2023-01-21T11:19:37.139Z,72.83
2023-01-21T11:22:14.771Z,72.15
2023-01-21T11:24:47.759Z,71.54
2023-01-21T11:27:35.232Z,71.36
2023-01-21T11:30:16.665Z,70.98
2023-01-21T11:32:54.444Z,71.13
2023-01-21T11:35:24.520Z,70.93
2023-01-21T11:37:52.710Z,71.15
2023-01-21T11:40:27.157Z,71.39
2023-01-21T11:42:57.254Z,71.36
2023-01-21T11:45:37.085Z,71.49
2023-01-21T11:48:21.084Z,71.91
2023-01-21T11:50:49.265Z,71.63
2023-01-21T11:53:19.307Z,71.00
2023-01-21T11:55:51.273Z,70.95
2023-01-21T11:58:24.542Z,71.45
2023-01-21T12:00:56.036Z,71.40
2023-01-21T12:03:30.165Z,71.72
2023-01-21T12:06:00.193Z,71.97
2023-01-21T12:08:38.517Z,72.32
2023-01-21T12:11:08.178Z,72.42
2023-01-21T12:14:01.771Z,72.02
2023-01-21T12:16:36.008Z,71.92
2023-01-21T12:19:37.549Z,71.95
2023-01-21T12:22:18.128Z,72.02
2023-01-21T12:25:01.251Z,71.97
2023-01-21T12:27:56.258Z,71.18
2023-01-21T12:30:36.874Z,71.42
2023-01-21T12:33:18.347Z,71.30
2023-01-21T12:35:54.056Z,71.22
2023-01-21T12:38:33.964Z,71.45
2023-01-21T12:41:14.588Z,71.13
2023-01-21T12:43:45.713Z,70.57
2023-01-21T12:46:14.116Z,70.64
2023-01-21T12:48:54.219Z,70.77
2023-01-21T12:51:28.826Z,70.85
2023-01-21T12:54:09.024Z,70.97
2023-01-21T12:57:00.315Z,70.69
2023-01-21T12:59:38.152Z,70.41
2023-01-21T13:02:40.886Z,70.90
2023-01-21T13:05:54.487Z,70.94
2023-01-21T13:08:39.749Z,70.65
2023-01-21T13:11:19.548Z,70.76
2023-01-21T13:13:56.629Z,70.91
2023-01-21T13:16:26.891Z,71.03
2023-01-21T13:18:56.839Z,71.27
2023-01-21T13:21:39.645Z,71.35
2023-01-21T13:24:15.102Z,71.22
2023-01-21T13:27:08.326Z,71.07
2023-01-21T13:29:40.945Z,71.03
2023-01-21T13:32:47.125Z,71.08
2023-01-21T13:35:35.482Z,71.25
2023-01-21T13:38:06.895Z,71.23
2023-01-21T13:40:53.495Z,71.00
2023-01-21T13:43:55.319Z,71.05
2023-01-21T13:46:48.534Z,71.29
2023-01-21T13:49:54.916Z,71.31
2023-01-21T13:53:09.159Z,71.25
2023-01-21T13:55:40.139Z,71.40
2023-01-21T13:58:30.394Z,71.40
2023-01-21T14:01:19.719Z,71.48
2023-01-21T14:03:56.626Z,71.21
2023-01-21T14:06:53.505Z,71.30
2023-01-21T14:09:38.809Z,71.11
2023-01-21T14:12:39.006Z,71.10
2023-01-21T14:15:21.264Z,71.25
2023-01-21T14:18:07.101Z,71.32
2023-01-21T14:21:04.914Z,71.16
2023-01-21T14:23:42.326Z,71.38
2023-01-21T14:26:35.574Z,71.70
2023-01-21T14:29:37.629Z,71.73
2023-01-21T14:32:14.727Z,72.00
2023-01-21T14:35:01.865Z,72.48
2023-01-21T14:37:41.213Z,72.57
2023-01-21T14:40:23.714Z,72.61
2023-01-21T14:42:53.686Z,72.72
2023-01-21T14:45:26.049Z,72.61
2023-01-21T14:47:56.176Z,72.72
2023-01-21T14:50:47.830Z,72.86
2023-01-21T14:53:23.724Z,72.85
2023-01-21T14:56:07.458Z,73.18
2023-01-21T14:58:37.536Z,73.50
2023-01-21T15:01:07.566Z,73.59
2023-01-21T15:03:49.093Z,73.82
2023-01-21T15:06:23.030Z,73.92
2023-01-21T15:08:59.222Z,74.04
2023-01-21T15:11:40.036Z,74.37
2023-01-21T15:14:23.450Z,74.42
2023-01-21T15:16:52.405Z,74.36
2023-01-21T15:19:37.758Z,74.74
2023-01-21T15:22:19.499Z,75.07
2023-01-21T15:25:18.983Z,75.21
2023-01-21T15:28:29.598Z,75.50
2023-01-21T15:31:01.357Z,75.54
2023-01-21T15:33:31.351Z,75.55
2023-01-21T15:36:00.462Z,75.75
2023-01-21T15:38:29.076Z,75.84
2023-01-21T15:41:07.339Z,75.95
2023-01-21T15:43:44.287Z,75.99
2023-01-21T15:46:37.465Z,76.05
2023-01-21T15:49:25.418Z,76.02
2023-01-21T15:52:03.084Z,76.08
2023-01-21T15:54:52.482Z,76.07
2023-01-21T15:57:52.780Z,76.03
2023-01-21T16:00:31.769Z,76.27
2023-01-21T16:03:05.975Z,76.47
2023-01-21T16:05:40.417Z,76.53
2023-01-21T16:08:30.828Z,76.66
2023-01-21T16:11:07.570Z,77.06
2023-01-21T16:14:06.686Z,77.35
2023-01-21T16:16:38.197Z,77.65
2023-01-21T16:19:11.192Z,77.55
2023-01-21T16:21:42.952Z,77.68
2023-01-21T16:24:17.817Z,77.93
2023-01-21T16:26:46.235Z,78.08
2023-01-21T16:29:15.689Z,77.97
2023-01-21T16:31:51.551Z,77.72
2023-01-21T16:34:32.121Z,77.55
2023-01-21T16:37:05.760Z,77.41
2023-01-21T16:39:35.188Z,77.45
2023-01-21T16:42:05.774Z,77.62
2023-01-21T16:44:35.845Z,77.26
2023-01-21T16:47:04.179Z,77.26
2023-01-21T16:49:38.024Z,77.08
2023-01-21T16:52:06.364Z,77.14
2023-01-21T16:54:34.521Z,77.22
2023-01-21T16:57:21.355Z,77.32
2023-01-21T16:59:49.938Z,77.62
2023-01-21T17:02:22.805Z,77.62
2023-01-21T17:04:54.784Z,77.60
2023-01-21T17:07:30.638Z,77.56
2023-01-21T17:10:24.724Z,77.83
2023-01-21T17:13:02.345Z,77.84
2023-01-21T17:15:33.697Z,77.80
2023-01-21T17:18:03.593Z,77.76
2023-01-21T17:20:51.507Z,77.47
2023-01-21T17:23:26.540Z,77.41
2023-01-21T17:26:24.070Z,77.03
2023-01-21T17:29:19.183Z,76.85
2023-01-21T17:32:01.553Z,76.86
2023-01-21T17:34:32.659Z,76.80
2023-01-21T17:37:01.725Z,76.76
2023-01-21T17:39:48.485Z,76.82
2023-01-21T17:42:20.035Z,76.66
2023-01-21T17:44:52.364Z,76.60
2023-01-21T17:47:25.583Z,76.64
2023-01-21T17:50:24.646Z,76.79
2023-01-21T17:52:56.863Z,76.88
2023-01-21T17:55:30.423Z,76.70
2023-01-21T17:58:05.932Z,76.89
2023-01-21T18:00:43.951Z,76.96
2023-01-21T18:03:12.840Z,76.54
2023-01-21T18:05:41.815Z,76.58
2023-01-21T18:08:14.619Z,76.82
2023-01-21T18:10:44.285Z,76.84
2023-01-21T18:13:17.699Z,76.98
2023-01-21T18:15:48.619Z,77.20
2023-01-21T18:18:24.631Z,77.26
2023-01-21T18:20:53.400Z,77.39
2023-01-21T18:23:22.521Z,77.57
2023-01-21T18:25:54.753Z,77.42
2023-01-21T18:28:26.673Z,77.25
2023-01-21T18:30:57.292Z,76.96
2023-01-21T18:33:25.623Z,76.99
2023-01-21T18:35:54.166Z,77.05
2023-01-21T18:38:33.400Z,77.12
2023-01-21T18:41:01.907Z,77.27
2023-01-21T18:43:30.125Z,77.24
2023-01-21T18:45:58.885Z,77.25
2023-01-21T18:48:30.458Z,77.36
2023-01-21T18:50:59.362Z,77.36
2023-01-21T18:53:30.411Z,77.28
2023-01-21T18:55:59.457Z,77.26
2023-01-21T18:58:28.089Z,77.27
2023-01-21T19:00:56.656Z,77.43
2023-01-21T19:03:25.607Z,77.44
2023-01-21T19:05:54.256Z,77.57
2023-01-21T19:08:24.874Z,77.75
2023-01-21T19:10:55.224Z,77.77
2023-01-21T19:13:24.299Z,77.89
2023-01-21T19:15:54.180Z,77.84
2023-01-21T19:18:22.258Z,77.93
2023-01-21T19:20:53.610Z,77.95
2023-01-21T19:23:22.088Z,77.96
2023-01-21T19:25:54.644Z,77.84
2023-01-21T19:28:24.345Z,77.80
2023-01-21T19:30:55.611Z,77.80
2023-01-21T19:33:25.253Z,77.82
2023-01-21T19:36:12.254Z,78.10
2023-01-21T19:38:42.684Z,78.03
2023-01-21T19:41:14.383Z,77.97
2023-01-21T19:43:42.643Z,78.07
2023-01-21T19:46:12.785Z,78.08
2023-01-21T19:48:41.650Z,77.94
2023-01-21T19:51:10.420Z,77.87
2023-01-21T19:53:41.561Z,78.01
2023-01-21T19:56:14.368Z,78.07
2023-01-21T19:58:43.184Z,77.92
2023-01-21T20:01:11.680Z,77.40
2023-01-21T20:03:54.783Z,77.26
2023-01-21T20:06:33.958Z,77.40
2023-01-21T20:09:02.242Z,77.32
2023-01-21T20:11:30.675Z,77.17
2023-01-21T20:13:59.517Z,76.97
2023-01-21T20:16:27.990Z,77.07
2023-01-21T20:18:56.622Z,77.18
2023-01-21T20:21:24.912Z,77.25
2023-01-21T20:23:52.933Z,77.29
2023-01-21T20:26:26.118Z,77.47
2023-01-21T20:28:54.774Z,77.64
2023-01-21T20:31:23.047Z,77.79
2023-01-21T20:33:51.473Z,77.82
2023-01-21T20:36:23.725Z,77.62
2023-01-21T20:38:53.943Z,77.47
2023-01-21T20:41:22.418Z,77.42
2023-01-21T20:43:50.949Z,77.67
2023-01-21T20:46:27.348Z,77.67
2023-01-21T20:48:57.876Z,77.71
2023-01-21T20:51:26.236Z,77.86
2023-01-21T20:53:54.969Z,77.83
2023-01-21T20:56:31.531Z,77.77
2023-01-21T20:59:00.300Z,77.78
2023-01-21T21:01:29.352Z,77.74
2023-01-21T21:03:57.680Z,77.45
2023-01-21T21:06:28.210Z,77.43
2023-01-21T21:08:56.467Z,77.39
2023-01-21T21:11:25.337Z,77.35
2023-01-21T21:13:53.622Z,77.11
2023-01-21T21:16:24.773Z,77.19
2023-01-21T21:18:53.371Z,77.20
2023-01-21T21:21:23.665Z,77.32
2023-01-21T21:23:53.108Z,77.41
2023-01-21T21:26:24.405Z,77.42
2023-01-21T21:28:55.036Z,77.50
2023-01-21T21:31:24.605Z,77.65
2023-01-21T21:33:53.354Z,77.59
2023-01-21T21:36:24.798Z,77.37
2023-01-21T21:38:56.109Z,77.47
2023-01-21T21:41:44.615Z,77.54
2023-01-21T21:44:13.539Z,77.63
2023-01-21T21:47:00.887Z,77.28
2023-01-21T21:49:29.808Z,77.17
2023-01-21T21:52:00.390Z,77.07
2023-01-21T21:54:28.548Z,77.04
2023-01-21T21:56:57.153Z,76.96
2023-01-21T21:59:25.425Z,76.92
2023-01-21T22:01:53.865Z,76.93
2023-01-21T22:04:23.854Z,76.72
2023-01-21T22:06:52.312Z,76.89
2023-01-21T22:09:20.832Z,76.80
2023-01-21T22:11:50.267Z,76.86
2023-01-21T22:14:18.333Z,76.98
2023-01-21T22:16:46.817Z,77.00
2023-01-21T22:19:15.435Z,76.89
2023-01-21T22:21:43.881Z,76.86
2023-01-21T22:24:12.064Z,76.68
2023-01-21T22:26:40.499Z,76.84
2023-01-21T22:29:08.615Z,76.58
2023-01-21T22:31:39.484Z,76.33
2023-01-21T22:34:08.041Z,76.31
2023-01-21T22:36:36.672Z,76.25
2023-01-21T22:39:04.779Z,76.22
2023-01-21T22:41:34.200Z,76.34
2023-01-21T22:44:02.322Z,76.39
2023-01-21T22:46:30.689Z,76.50
2023-01-21T22:48:59.148Z,76.76
2023-01-21T22:51:27.887Z,76.80
2023-01-21T22:53:56.891Z,76.93
2023-01-21T22:56:44.727Z,76.96
2023-01-21T22:59:14.634Z,77.06
2023-01-21T23:01:42.718Z,77.13
2023-01-21T23:04:11.314Z,77.19
2023-01-21T23:06:39.629Z,77.18
2023-01-21T23:09:09.715Z,77.29
2023-01-21T23:11:40.132Z,77.40
2023-01-21T23:14:10.326Z,77.40
2023-01-21T23:16:38.401Z,77.55
2023-01-21T23:19:06.784Z,77.94
2023-01-21T23:21:37.737Z,78.19
2023-01-21T23:24:06.589Z,78.27
2023-01-21T23:26:34.856Z,78.58
2023-01-21T23:29:03.594Z,78.81
2023-01-21T23:31:32.110Z,78.88
2023-01-21T23:34:00.321Z,78.83
2023-01-21T23:36:28.695Z,79.03
2023-01-21T23:38:56.893Z,79.27
2023-01-21T23:41:25.005Z,79.25
2023-01-21T23:43:53.295Z,79.35
2023-01-21T23:46:21.704Z,79.55
2023-01-21T23:48:49.895Z,79.46
2023-01-21T23:51:19.161Z,79.50
2023-01-21T23:53:49.360Z,79.58
2023-01-21T23:56:22.844Z,79.72
2023-01-21T23:58:51.763Z,79.66
